sensor_id;sensor_type;location;lat;lon;timestamp;pressure;altitude;pressure_sealevel;temperature;humidity
60852;BME280;48553;50.766;2.900;2022-11-20T00:00:21;100587.53;;;7.53;84.91
60852;BME280;48553;50.766;2.900;2022-11-20T00:03:22;100589.47;;;7.53;84.81
60852;BME280;48553;50.766;2.900;2022-11-20T00:06:24;100587.53;;;7.53;85.02
60852;BME280;48553;50.766;2.900;2022-11-20T00:09:24;100588.19;;;7.50;84.84
60852;BME280;48553;50.766;2.900;2022-11-20T00:12:25;100585.94;;;7.52;85.08
60852;BME280;48553;50.766;2.900;2022-11-20T00:15:25;100582.25;;;7.48;85.22
60852;BME280;48553;50.766;2.900;2022-11-20T00:18:27;100591.41;;;7.52;85.03
60852;BME280;48553;50.766;2.900;2022-11-20T00:21:28;100583.88;;;7.49;85.14
60852;BME280;48553;50.766;2.900;2022-11-20T00:24:28;100583.88;;;7.49;84.94
60852;BME280;48553;50.766;2.900;2022-11-20T00:27:29;100585.47;;;7.50;85.05
60852;BME280;48553;50.766;2.900;2022-11-20T00:30:29;100583.88;;;7.49;85.25
60852;BME280;48553;50.766;2.900;2022-11-20T00:33:30;100590.13;;;7.50;85.10
60852;BME280;48553;50.766;2.900;2022-11-20T00:36:33;100601.66;;;7.47;85.23
60852;BME280;48553;50.766;2.900;2022-11-20T00:39:34;100598.78;;;7.43;85.18
60852;BME280;48553;50.766;2.900;2022-11-20T00:42:34;100589.94;;;7.46;85.16
60852;BME280;48553;50.766;2.900;2022-11-20T00:45:35;100596.53;;;7.45;84.90
60852;BME280;48553;50.766;2.900;2022-11-20T00:48:35;100593.31;;;7.43;85.20
60852;BME280;48553;50.766;2.900;2022-11-20T00:51:35;100593.00;;;7.45;85.21
60852;BME280;48553;50.766;2.900;2022-11-20T00:54:36;100601.97;;;7.45;84.94
60852;BME280;48553;50.766;2.900;2022-11-20T00:57:36;100589.78;;;7.43;85.44
60852;BME280;48553;50.766;2.900;2022-11-20T01:00:38;100597.97;;;7.43;85.36
60852;BME280;48553;50.766;2.900;2022-11-20T01:03:41;100602.59;;;7.42;85.32
60852;BME280;48553;50.766;2.900;2022-11-20T01:06:41;100608.88;;;7.43;85.34
60852;BME280;48553;50.766;2.900;2022-11-20T01:09:41;100605.31;;;7.42;85.17
60852;BME280;48553;50.766;2.900;2022-11-20T01:12:42;100603.25;;;7.39;85.39
60852;BME280;48553;50.766;2.900;2022-11-20T01:15:42;100590.09;;;7.41;85.05
60852;BME280;48553;50.766;2.900;2022-11-20T01:18:45;100597.00;;;7.39;85.36
60852;BME280;48553;50.766;2.900;2022-11-20T01:21:49;100595.56;;;7.41;85.23
60852;BME280;48553;50.766;2.900;2022-11-20T01:24:50;100591.22;;;7.40;85.41
60852;BME280;48553;50.766;2.900;2022-11-20T01:27:50;100593.13;;;7.40;85.33
60852;BME280;48553;50.766;2.900;2022-11-20T01:30:51;100578.72;;;7.39;85.44
60852;BME280;48553;50.766;2.900;2022-11-20T01:33:53;100585.28;;;7.38;85.35
60852;BME280;48553;50.766;2.900;2022-11-20T01:36:54;100581.44;;;7.39;85.54
60852;BME280;48553;50.766;2.900;2022-11-20T01:39:54;100576.47;;;7.41;85.27
60852;BME280;48553;50.766;2.900;2022-11-20T01:43:09;100577.91;;;7.39;85.42
60852;BME280;48553;50.766;2.900;2022-11-20T01:46:21;100563.78;;;7.37;85.50
60852;BME280;48553;50.766;2.900;2022-11-20T01:53:05;100569.25;;;7.37;85.85
60852;BME280;48553;50.766;2.900;2022-11-20T01:56:10;100559.13;;;7.37;85.88
60852;BME280;48553;50.766;2.900;2022-11-20T01:59:13;100558.34;;;7.37;85.47
60852;BME280;48553;50.766;2.900;2022-11-20T02:02:15;100565.38;;;7.38;85.80
60852;BME280;48553;50.766;2.900;2022-11-20T02:05:35;100560.59;;;7.35;85.89
60852;BME280;48553;50.766;2.900;2022-11-20T02:08:38;100556.09;;;7.39;85.43
60852;BME280;48553;50.766;2.900;2022-11-20T02:11:39;100553.69;;;7.37;85.78
60852;BME280;48553;50.766;2.900;2022-11-20T02:14:40;100575.19;;;7.39;85.53
60852;BME280;48553;50.766;2.900;2022-11-20T02:17:40;100564.28;;;7.39;85.38
60852;BME280;48553;50.766;2.900;2022-11-20T02:20:43;100564.59;;;7.37;85.74
60852;BME280;48553;50.766;2.900;2022-11-20T02:24:12;100555.63;;;7.37;85.82
60852;BME280;48553;50.766;2.900;2022-11-20T02:27:15;100557.69;;;7.31;85.75
60852;BME280;48553;50.766;2.900;2022-11-20T02:30:17;100551.44;;;7.30;85.71
60852;BME280;48553;50.766;2.900;2022-11-20T02:33:17;100545.34;;;7.34;85.61
60852;BME280;48553;50.766;2.900;2022-11-20T02:36:18;100545.34;;;7.34;85.85
60852;BME280;48553;50.766;2.900;2022-11-20T02:39:19;100539.91;;;7.34;85.58
60852;BME280;48553;50.766;2.900;2022-11-20T02:42:20;100530.41;;;7.31;85.82
60852;BME280;48553;50.766;2.900;2022-11-20T02:45:21;100524.97;;;7.31;85.74
60852;BME280;48553;50.766;2.900;2022-11-20T02:48:22;100521.44;;;7.30;85.69
60852;BME280;48553;50.766;2.900;2022-11-20T02:51:23;100524.16;;;7.30;85.67
60852;BME280;48553;50.766;2.900;2022-11-20T02:54:24;100514.88;;;7.31;85.52
60852;BME280;48553;50.766;2.900;2022-11-20T02:57:24;100509.75;;;7.30;85.70
60852;BME280;48553;50.766;2.900;2022-11-20T03:00:25;100510.22;;;7.32;85.73
60852;BME280;48553;50.766;2.900;2022-11-20T03:03:25;100510.88;;;7.29;85.58
60852;BME280;48553;50.766;2.900;2022-11-20T03:06:25;100511.19;;;7.27;85.60
60852;BME280;48553;50.766;2.900;2022-11-20T03:09:26;100490.50;;;7.26;85.50
60852;BME280;48553;50.766;2.900;2022-11-20T03:12:26;100482.66;;;7.25;85.62
60852;BME280;48553;50.766;2.900;2022-11-20T03:15:27;100475.56;;;7.24;85.67
60852;BME280;48553;50.766;2.900;2022-11-20T03:18:28;100479.94;;;7.25;85.38
60852;BME280;48553;50.766;2.900;2022-11-20T03:21:29;100471.75;;;7.25;85.37
60852;BME280;48553;50.766;2.900;2022-11-20T03:24:29;100470.47;;;7.22;85.41
60852;BME280;48553;50.766;2.900;2022-11-20T03:27:34;100478.31;;;7.24;85.49
60852;BME280;48553;50.766;2.900;2022-11-20T03:30:35;100474.00;;;7.23;85.47
60852;BME280;48553;50.766;2.900;2022-11-20T03:33:35;100484.88;;;7.23;85.75
60852;BME280;48553;50.766;2.900;2022-11-20T03:36:40;100496.59;;;7.23;85.29
60852;BME280;48553;50.766;2.900;2022-11-20T03:39:40;100481.69;;;7.21;85.83
60852;BME280;48553;50.766;2.900;2022-11-20T03:42:41;100479.75;;;7.21;85.52
60852;BME280;48553;50.766;2.900;2022-11-20T03:45:47;100469.97;;;7.20;85.38
60852;BME280;48553;50.766;2.900;2022-11-20T03:48:48;100467.25;;;7.20;85.55
60852;BME280;48553;50.766;2.900;2022-11-20T03:51:48;100460.97;;;7.20;85.85
60852;BME280;48553;50.766;2.900;2022-11-20T03:54:49;100448.19;;;7.20;85.84
60852;BME280;48553;50.766;2.900;2022-11-20T03:57:49;100448.50;;;7.19;85.85
60852;BME280;48553;50.766;2.900;2022-11-20T04:00:50;100443.34;;;7.17;85.69
60852;BME280;48553;50.766;2.900;2022-11-20T04:03:52;100446.91;;;7.18;85.95
60852;BME280;48553;50.766;2.900;2022-11-20T04:06:52;100444.19;;;7.18;85.88
60852;BME280;48553;50.766;2.900;2022-11-20T04:09:53;100433.28;;;7.18;86.13
60852;BME280;48553;50.766;2.900;2022-11-20T04:12:53;100438.56;;;7.14;86.04
60852;BME280;48553;50.766;2.900;2022-11-20T04:15:57;100425.22;;;7.13;86.35
60852;BME280;48553;50.766;2.900;2022-11-20T04:18:59;100429.25;;;7.15;86.29
60852;BME280;48553;50.766;2.900;2022-11-20T04:22:00;100423.34;;;7.13;86.58
60852;BME280;48553;50.766;2.900;2022-11-20T04:25:00;100436.63;;;7.15;86.30
60852;BME280;48553;50.766;2.900;2022-11-20T04:28:01;100427.97;;;7.13;86.35
60852;BME280;48553;50.766;2.900;2022-11-20T04:31:13;100423.78;;;7.15;86.43
60852;BME280;48553;50.766;2.900;2022-11-20T04:34:13;100426.06;;;7.13;86.50
60852;BME280;48553;50.766;2.900;2022-11-20T04:37:14;100415.94;;;7.14;86.58
60852;BME280;48553;50.766;2.900;2022-11-20T04:40:14;100411.28;;;7.14;86.29
60852;BME280;48553;50.766;2.900;2022-11-20T04:43:15;100421.41;;;7.14;86.65
60852;BME280;48553;50.766;2.900;2022-11-20T04:46:18;100413.72;;;7.16;86.56
60852;BME280;48553;50.766;2.900;2022-11-20T04:49:19;100408.88;;;7.13;86.86
60852;BME280;48553;50.766;2.900;2022-11-20T04:52:20;100411.59;;;7.13;86.66
60852;BME280;48553;50.766;2.900;2022-11-20T04:55:20;100410.34;;;7.10;86.85
60852;BME280;48553;50.766;2.900;2022-11-20T04:58:22;100396.72;;;7.10;86.93
60852;BME280;48553;50.766;2.900;2022-11-20T05:01:23;100394.78;;;7.10;87.23
60852;BME280;48553;50.766;2.900;2022-11-20T05:04:24;100395.25;;;7.13;87.09
60852;BME280;48553;50.766;2.900;2022-11-20T05:07:24;100400.72;;;7.13;86.88
60852;BME280;48553;50.766;2.900;2022-11-20T05:10:25;100401.84;;;7.11;87.21
60852;BME280;48553;50.766;2.900;2022-11-20T05:13:26;100391.75;;;7.12;87.43
60852;BME280;48553;50.766;2.900;2022-11-20T05:16:27;100395.25;;;7.13;87.22
60852;BME280;48553;50.766;2.900;2022-11-20T05:19:27;100399.13;;;7.11;87.09
60852;BME280;48553;50.766;2.900;2022-11-20T05:22:28;100403.44;;;7.13;87.36
60852;BME280;48553;50.766;2.900;2022-11-20T05:25:28;100408.88;;;7.13;87.12
60852;BME280;48553;50.766;2.900;2022-11-20T05:28:29;100408.09;;;7.12;87.27
60852;BME280;48553;50.766;2.900;2022-11-20T05:31:30;100401.84;;;7.11;87.50
60852;BME280;48553;50.766;2.900;2022-11-20T05:34:31;100403.91;;;7.15;87.23
60852;BME280;48553;50.766;2.900;2022-11-20T05:37:31;100398.47;;;7.15;87.25
60852;BME280;48553;50.766;2.900;2022-11-20T05:40:32;100388.69;;;7.14;87.55
60852;BME280;48553;50.766;2.900;2022-11-20T05:43:37;100384.34;;;7.13;87.24
60852;BME280;48553;50.766;2.900;2022-11-20T05:46:37;100387.91;;;7.13;87.50
60852;BME280;48553;50.766;2.900;2022-11-20T05:49:38;100389.81;;;7.13;87.58
60852;BME280;48553;50.766;2.900;2022-11-20T05:52:38;100380.03;;;7.11;87.76
60852;BME280;48553;50.766;2.900;2022-11-20T05:55:39;100396.53;;;7.15;87.69
60852;BME280;48553;50.766;2.900;2022-11-20T05:58:39;100390.28;;;7.15;87.71
60852;BME280;48553;50.766;2.900;2022-11-20T06:01:40;100391.44;;;7.14;87.57
60852;BME280;48553;50.766;2.900;2022-11-20T06:04:40;100395.75;;;7.15;87.91
60852;BME280;48553;50.766;2.900;2022-11-20T06:07:41;100385.31;;;7.17;87.60
60852;BME280;48553;50.766;2.900;2022-11-20T06:10:41;100378.59;;;7.14;87.73
60852;BME280;48553;50.766;2.900;2022-11-20T06:13:42;100370.41;;;7.14;87.86
60852;BME280;48553;50.766;2.900;2022-11-20T06:16:42;100359.53;;;7.14;87.61
60852;BME280;48553;50.766;2.900;2022-11-20T06:19:42;100365.75;;;7.15;87.94
60852;BME280;48553;50.766;2.900;2022-11-20T06:22:43;100369.78;;;7.17;87.83
60852;BME280;48553;50.766;2.900;2022-11-20T06:25:43;100349.91;;;7.17;87.76
60852;BME280;48553;50.766;2.900;2022-11-20T06:28:44;100340.13;;;7.16;87.84
60852;BME280;48553;50.766;2.900;2022-11-20T06:31:44;100341.72;;;7.17;88.25
60852;BME280;48553;50.766;2.900;2022-11-20T06:34:45;100342.50;;;7.17;87.80
60852;BME280;48553;50.766;2.900;2022-11-20T06:37:45;100353.09;;;7.19;88.11
60852;BME280;48553;50.766;2.900;2022-11-20T06:40:46;100346.69;;;7.15;88.02
60852;BME280;48553;50.766;2.900;2022-11-20T06:43:46;100353.41;;;7.17;88.24
60852;BME280;48553;50.766;2.900;2022-11-20T06:46:47;100345.25;;;7.17;88.08
60852;BME280;48553;50.766;2.900;2022-11-20T06:49:47;100349.59;;;7.18;88.08
60852;BME280;48553;50.766;2.900;2022-11-20T06:52:47;100337.88;;;7.18;87.97
60852;BME280;48553;50.766;2.900;2022-11-20T06:55:49;100330.50;;;7.18;87.89
60852;BME280;48553;50.766;2.900;2022-11-20T06:58:49;100336.28;;;7.17;88.61
60852;BME280;48553;50.766;2.900;2022-11-20T07:01:49;100320.41;;;7.19;88.40
60852;BME280;48553;50.766;2.900;2022-11-20T07:04:50;100328.09;;;7.17;88.48
60852;BME280;48553;50.766;2.900;2022-11-20T07:07:50;100327.63;;;7.15;88.67
60852;BME280;48553;50.766;2.900;2022-11-20T07:10:51;100335.16;;;7.18;88.35
60852;BME280;48553;50.766;2.900;2022-11-20T07:13:51;100325.06;;;7.18;88.38
60852;BME280;48553;50.766;2.900;2022-11-20T07:16:52;100332.09;;;7.19;88.16
60852;BME280;48553;50.766;2.900;2022-11-20T07:19:52;100327.44;;;7.20;88.33
60852;BME280;48553;50.766;2.900;2022-11-20T07:22:57;100324.72;;;7.20;88.67
60852;BME280;48553;50.766;2.900;2022-11-20T07:25:58;100331.78;;;7.21;88.59
60852;BME280;48553;50.766;2.900;2022-11-20T07:29:02;100330.16;;;7.20;88.39
60852;BME280;48553;50.766;2.900;2022-11-20T07:32:03;100318.94;;;7.21;88.47
60852;BME280;48553;50.766;2.900;2022-11-20T07:35:04;100317.00;;;7.22;88.46
60852;BME280;48553;50.766;2.900;2022-11-20T07:38:11;100319.75;;;7.22;88.59
60852;BME280;48553;50.766;2.900;2022-11-20T07:41:12;100309.66;;;7.22;88.50
60852;BME280;48553;50.766;2.900;2022-11-20T07:44:12;100305.31;;;7.21;88.67
60852;BME280;48553;50.766;2.900;2022-11-20T07:47:13;100307.25;;;7.21;88.46
60852;BME280;48553;50.766;2.900;2022-11-20T07:50:13;100308.84;;;7.22;88.65
60852;BME280;48553;50.766;2.900;2022-11-20T07:53:14;100312.03;;;7.24;88.16
60852;BME280;48553;50.766;2.900;2022-11-20T07:56:20;100303.06;;;7.23;88.69
60852;BME280;48553;50.766;2.900;2022-11-20T07:59:21;100304.22;;;7.22;88.69
60852;BME280;48553;50.766;2.900;2022-11-20T08:02:21;100304.22;;;7.22;88.65
60852;BME280;48553;50.766;2.900;2022-11-20T08:05:22;100295.22;;;7.22;88.63
60852;BME280;48553;50.766;2.900;2022-11-20T08:08:22;100295.69;;;7.24;88.56
60852;BME280;48553;50.766;2.900;2022-11-20T08:11:23;100292.66;;;7.25;88.72
60852;BME280;48553;50.766;2.900;2022-11-20T08:14:42;100298.91;;;7.26;88.47
60852;BME280;48553;50.766;2.900;2022-11-20T08:17:42;100292.00;;;7.28;88.17
60852;BME280;48553;50.766;2.900;2022-11-20T08:20:43;100278.38;;;7.28;88.25
60852;BME280;48553;50.766;2.900;2022-11-20T08:23:44;100285.75;;;7.28;88.63
60852;BME280;48553;50.766;2.900;2022-11-20T08:26:44;100270.53;;;7.27;88.62
60852;BME280;48553;50.766;2.900;2022-11-20T08:29:45;100271.00;;;7.29;88.78
60852;BME280;48553;50.766;2.900;2022-11-20T08:32:45;100278.53;;;7.32;88.33
60852;BME280;48553;50.766;2.900;2022-11-20T08:35:46;100271.47;;;7.31;88.54
60852;BME280;48553;50.766;2.900;2022-11-20T08:38:47;100275.00;;;7.31;88.46
60852;BME280;48553;50.766;2.900;2022-11-20T08:41:48;100263.63;;;7.29;88.96
60852;BME280;48553;50.766;2.900;2022-11-20T08:44:49;100266.47;;;7.33;88.71
60852;BME280;48553;50.766;2.900;2022-11-20T08:47:49;100259.56;;;7.36;88.83
60852;BME280;48553;50.766;2.900;2022-11-20T08:50:49;100247.88;;;7.35;88.98
60852;BME280;48553;50.766;2.900;2022-11-20T08:53:50;100257.69;;;7.36;88.84
60852;BME280;48553;50.766;2.900;2022-11-20T08:56:50;100243.69;;;7.38;88.71
60852;BME280;48553;50.766;2.900;2022-11-20T08:59:51;100248.13;;;7.51;87.98
60852;BME280;48553;50.766;2.900;2022-11-20T09:02:51;100236.16;;;7.43;88.68
60852;BME280;48553;50.766;2.900;2022-11-20T09:05:57;100237.25;;;7.42;88.80
60852;BME280;48553;50.766;2.900;2022-11-20T09:08:58;100249.47;;;7.45;88.68
60852;BME280;48553;50.766;2.900;2022-11-20T09:11:58;100237.41;;;7.46;88.88
60852;BME280;48553;50.766;2.900;2022-11-20T09:14:59;100235.50;;;7.46;88.72
60852;BME280;48553;50.766;2.900;2022-11-20T09:18:03;100228.59;;;7.49;89.30
60852;BME280;48553;50.766;2.900;2022-11-20T09:21:09;100231.66;;;7.47;89.20
60852;BME280;48553;50.766;2.900;2022-11-20T09:24:10;100220.09;;;7.50;89.22
60852;BME280;48553;50.766;2.900;2022-11-20T09:27:11;100213.34;;;7.48;89.23
60852;BME280;48553;50.766;2.900;2022-11-20T09:30:15;100202.94;;;7.50;89.42
60852;BME280;48553;50.766;2.900;2022-11-20T09:33:15;100211.59;;;7.52;89.02
60852;BME280;48553;50.766;2.900;2022-11-20T09:36:16;100217.34;;;7.50;89.35
60852;BME280;48553;50.766;2.900;2022-11-20T09:39:18;100202.13;;;7.49;89.40
60852;BME280;48553;50.766;2.900;2022-11-20T09:55:54;100171.75;;;7.60;89.43
60852;BME280;48553;50.766;2.900;2022-11-20T09:58:59;100184.59;;;7.59;89.51
60852;BME280;48553;50.766;2.900;2022-11-20T10:02:12;100174.78;;;7.58;89.77
60852;BME280;48553;50.766;2.900;2022-11-20T10:05:21;100172.88;;;7.59;89.87
60852;BME280;48553;50.766;2.900;2022-11-20T10:08:25;100165.16;;;7.61;89.69
60852;BME280;48553;50.766;2.900;2022-11-20T10:18:15;100160.53;;;7.61;89.72
60852;BME280;48553;50.766;2.900;2022-11-20T10:31:03;100145.28;;;7.60;89.93
60852;BME280;48553;50.766;2.900;2022-11-20T10:34:24;100141.44;;;7.61;89.67
60852;BME280;48553;50.766;2.900;2022-11-20T10:37:27;100133.25;;;7.61;89.81
60852;BME280;48553;50.766;2.900;2022-11-20T10:40:37;100120.09;;;7.63;89.99
60852;BME280;48553;50.766;2.900;2022-11-20T10:43:38;100103.72;;;7.63;90.15
60852;BME280;48553;50.766;2.900;2022-11-20T10:50:22;100102.59;;;7.64;90.38
60852;BME280;48553;50.766;2.900;2022-11-20T10:59:41;100082.03;;;7.67;90.38
60852;BME280;48553;50.766;2.900;2022-11-20T11:02:50;100081.03;;;7.71;90.15
60852;BME280;48553;50.766;2.900;2022-11-20T11:05:56;100073.31;;;7.73;89.93
60852;BME280;48553;50.766;2.900;2022-11-20T11:09:04;100068.19;;;7.72;90.25
60852;BME280;48553;50.766;2.900;2022-11-20T11:12:09;100067.06;;;7.73;90.70
60852;BME280;48553;50.766;2.900;2022-11-20T11:15:14;100054.53;;;7.72;90.51
60852;BME280;48553;50.766;2.900;2022-11-20T11:18:29;100049.09;;;7.72;90.57
60852;BME280;48553;50.766;2.900;2022-11-20T11:21:30;100035.00;;;7.70;90.86
60852;BME280;48553;50.766;2.900;2022-11-20T11:24:31;100037.75;;;7.70;90.87
60852;BME280;48553;50.766;2.900;2022-11-20T11:27:31;100026.72;;;7.79;90.54
60852;BME280;48553;50.766;2.900;2022-11-20T11:30:42;100030.47;;;7.74;90.96
60852;BME280;48553;50.766;2.900;2022-11-20T11:33:43;100023.88;;;7.75;90.97
60852;BME280;48553;50.766;2.900;2022-11-20T11:36:57;100017.66;;;7.74;91.18
60852;BME280;48553;50.766;2.900;2022-11-20T11:39:58;100003.19;;;7.74;91.11
60852;BME280;48553;50.766;2.900;2022-11-20T11:43:02;100002.53;;;7.77;91.27
60852;BME280;48553;50.766;2.900;2022-11-20T11:46:19;99987.28;;;7.76;91.14
60852;BME280;48553;50.766;2.900;2022-11-20T11:49:23;99973.66;;;7.76;91.47
60852;BME280;48553;50.766;2.900;2022-11-20T11:52:23;99954.38;;;7.81;91.03
60852;BME280;48553;50.766;2.900;2022-11-20T11:55:45;99945.81;;;7.83;90.94
60852;BME280;48553;50.766;2.900;2022-11-20T11:58:50;99951.63;;;7.81;91.12
60852;BME280;48553;50.766;2.900;2022-11-20T12:01:56;99934.44;;;7.81;91.57
60852;BME280;48553;50.766;2.900;2022-11-20T12:05:05;99922.44;;;7.82;91.71
60852;BME280;48553;50.766;2.900;2022-11-20T12:08:25;99919.81;;;7.85;91.59
60852;BME280;48553;50.766;2.900;2022-11-20T12:14:49;99898.34;;;7.84;91.54
60852;BME280;48553;50.766;2.900;2022-11-20T12:17:53;99901.06;;;7.84;91.75
60852;BME280;48553;50.766;2.900;2022-11-20T12:31:14;99875.13;;;7.90;91.27
60852;BME280;48553;50.766;2.900;2022-11-20T12:34:32;99868.56;;;7.91;91.55
60852;BME280;48553;50.766;2.900;2022-11-20T12:57:55;99877.22;;;7.93;92.47
60852;BME280;48553;50.766;2.900;2022-11-20T13:04:55;99860.72;;;8.02;92.25
60852;BME280;48553;50.766;2.900;2022-11-20T13:08:04;99865.38;;;8.26;91.34
60852;BME280;48553;50.766;2.900;2022-11-20T13:18:14;99878.81;;;8.68;93.08
60852;BME280;48553;50.766;2.900;2022-11-20T13:21:20;99884.81;;;8.73;90.98
60852;BME280;48553;50.766;2.900;2022-11-20T13:24:26;99868.09;;;8.75;93.19
60852;BME280;48553;50.766;2.900;2022-11-20T13:27:26;99883.56;;;8.71;91.61
60852;BME280;48553;50.766;2.900;2022-11-20T13:30:31;99877.31;;;8.70;89.79
60852;BME280;48553;50.766;2.900;2022-11-20T13:33:34;99882.19;;;8.77;89.94
60852;BME280;48553;50.766;2.900;2022-11-20T13:36:35;99882.50;;;8.88;90.00
60852;BME280;48553;50.766;2.900;2022-11-20T13:39:36;99884.56;;;8.91;91.41
60852;BME280;48553;50.766;2.900;2022-11-20T13:45:55;99895.72;;;8.86;90.11
60852;BME280;48553;50.766;2.900;2022-11-20T13:48:56;99880.59;;;8.88;89.41
60852;BME280;48553;50.766;2.900;2022-11-20T13:55:49;99898.31;;;8.94;90.08
60852;BME280;48553;50.766;2.900;2022-11-20T13:59:24;99894.19;;;9.01;89.85
60852;BME280;48553;50.766;2.900;2022-11-20T14:02:29;99906.94;;;9.09;90.25
60852;BME280;48553;50.766;2.900;2022-11-20T14:05:32;99909.88;;;9.16;92.20
60852;BME280;48553;50.766;2.900;2022-11-20T14:08:46;99913.97;;;9.22;92.21
60852;BME280;48553;50.766;2.900;2022-11-20T14:11:47;99902.22;;;9.22;91.33
60852;BME280;48553;50.766;2.900;2022-11-20T14:14:50;99899.47;;;9.22;91.04
60852;BME280;48553;50.766;2.900;2022-11-20T14:17:52;99910.78;;;9.20;90.50
60852;BME280;48553;50.766;2.900;2022-11-20T14:20:52;99912.69;;;9.19;89.96
60852;BME280;48553;50.766;2.900;2022-11-20T14:24:02;99921.16;;;9.14;88.74
60852;BME280;48553;50.766;2.900;2022-11-20T14:27:03;99923.34;;;9.09;88.76
60852;BME280;48553;50.766;2.900;2022-11-20T14:30:04;99912.28;;;9.05;88.43
60852;BME280;48553;50.766;2.900;2022-11-20T14:33:05;99920.41;;;9.02;88.76
60852;BME280;48553;50.766;2.900;2022-11-20T14:36:05;99937.47;;;8.98;89.31
60852;BME280;48553;50.766;2.900;2022-11-20T14:39:10;99931.56;;;8.96;89.57
60852;BME280;48553;50.766;2.900;2022-11-20T14:42:25;99930.31;;;8.94;89.72
60852;BME280;48553;50.766;2.900;2022-11-20T14:45:26;99937.59;;;8.90;89.85
60852;BME280;48553;50.766;2.900;2022-11-20T14:51:42;99935.56;;;8.87;89.49
60852;BME280;48553;50.766;2.900;2022-11-20T14:54:52;99933.16;;;8.85;89.73
60852;BME280;48553;50.766;2.900;2022-11-20T14:57:59;99935.91;;;8.85;89.65
60852;BME280;48553;50.766;2.900;2022-11-20T15:01:06;99938.53;;;8.82;89.48
60852;BME280;48553;50.766;2.900;2022-11-20T15:04:08;99947.06;;;8.80;89.71
60852;BME280;48553;50.766;2.900;2022-11-20T15:07:09;99946.28;;;8.80;89.51
60852;BME280;48553;50.766;2.900;2022-11-20T15:10:13;99951.28;;;8.77;89.12
60852;BME280;48553;50.766;2.900;2022-11-20T15:13:35;99950.84;;;8.75;89.13
60852;BME280;48553;50.766;2.900;2022-11-20T15:16:36;99957.78;;;8.73;89.09
60852;BME280;48553;50.766;2.900;2022-11-20T15:19:37;99951.06;;;8.70;88.85
60852;BME280;48553;50.766;2.900;2022-11-20T15:22:37;99950.28;;;8.70;88.78
60852;BME280;48553;50.766;2.900;2022-11-20T15:25:39;99963.47;;;8.68;88.77
60852;BME280;48553;50.766;2.900;2022-11-20T15:28:41;99968.13;;;8.67;89.04
60852;BME280;48553;50.766;2.900;2022-11-20T15:31:42;99956.31;;;8.63;89.06
60852;BME280;48553;50.766;2.900;2022-11-20T15:34:44;99955.88;;;8.61;88.66
60852;BME280;48553;50.766;2.900;2022-11-20T15:37:45;99973.38;;;8.60;88.94
60852;BME280;48553;50.766;2.900;2022-11-20T15:40:45;99969.06;;;8.59;88.73
60852;BME280;48553;50.766;2.900;2022-11-20T15:43:46;99964.38;;;8.60;88.84
60852;BME280;48553;50.766;2.900;2022-11-20T15:46:46;99958.47;;;8.57;88.86
60852;BME280;48553;50.766;2.900;2022-11-20T15:49:47;99967.34;;;8.54;88.70
60852;BME280;48553;50.766;2.900;2022-11-20T15:52:47;99964.94;;;8.53;89.00
60852;BME280;48553;50.766;2.900;2022-11-20T15:55:48;99960.97;;;8.50;88.93
60852;BME280;48553;50.766;2.900;2022-11-20T15:58:48;99958.25;;;8.50;88.46
60852;BME280;48553;50.766;2.900;2022-11-20T16:01:49;99960.84;;;8.47;88.55
60852;BME280;48553;50.766;2.900;2022-11-20T16:04:49;99967.13;;;8.47;88.63
60852;BME280;48553;50.766;2.900;2022-11-20T16:07:50;99968.16;;;8.43;88.52
60852;BME280;48553;50.766;2.900;2022-11-20T16:10:51;99968.16;;;8.43;88.57
60852;BME280;48553;50.766;2.900;2022-11-20T16:13:51;99970.06;;;8.42;88.74
60852;BME280;48553;50.766;2.900;2022-11-20T16:17:11;99971.50;;;8.40;88.41
60852;BME280;48553;50.766;2.900;2022-11-20T16:20:11;99981.66;;;8.39;88.41
60852;BME280;48553;50.766;2.900;2022-11-20T16:23:12;99977.66;;;8.36;88.31
60852;BME280;48553;50.766;2.900;2022-11-20T16:26:15;99974.13;;;8.36;88.38
60852;BME280;48553;50.766;2.900;2022-11-20T16:29:16;99985.72;;;8.33;88.12
60852;BME280;48553;50.766;2.900;2022-11-20T16:32:17;99986.09;;;8.31;88.25
60852;BME280;48553;50.766;2.900;2022-11-20T16:35:18;99978.56;;;8.28;87.99
60852;BME280;48553;50.766;2.900;2022-11-20T16:38:18;99992.19;;;8.28;87.96
60852;BME280;48553;50.766;2.900;2022-11-20T16:41:19;99989.47;;;8.28;87.91
60852;BME280;48553;50.766;2.900;2022-11-20T16:44:19;99987.44;;;8.25;87.81
60852;BME280;48553;50.766;2.900;2022-11-20T16:47:20;99981.50;;;8.23;87.65
60852;BME280;48553;50.766;2.900;2022-11-20T16:50:20;99984.22;;;8.23;87.45
60852;BME280;48553;50.766;2.900;2022-11-20T16:53:21;100004.03;;;8.20;87.70
60852;BME280;48553;50.766;2.900;2022-11-20T16:56:24;100001.97;;;8.17;87.26
60852;BME280;48553;50.766;2.900;2022-11-20T16:59:25;99996.50;;;8.17;87.35
60852;BME280;48553;50.766;2.900;2022-11-20T17:02:25;100012.41;;;8.15;87.45
60852;BME280;48553;50.766;2.900;2022-11-20T17:05:28;100013.56;;;8.14;87.27
60852;BME280;48553;50.766;2.900;2022-11-20T17:08:29;100017.44;;;8.13;87.26
60852;BME280;48553;50.766;2.900;2022-11-20T17:11:30;100007.19;;;8.10;87.21
60852;BME280;48553;50.766;2.900;2022-11-20T17:14:32;100009.44;;;8.08;87.18
60852;BME280;48553;50.766;2.900;2022-11-20T17:17:33;100006.25;;;8.06;87.12
60852;BME280;48553;50.766;2.900;2022-11-20T17:20:33;100008.97;;;8.06;87.18
60852;BME280;48553;50.766;2.900;2022-11-20T17:23:35;100009.34;;;8.04;86.97
60852;BME280;48553;50.766;2.900;2022-11-20T17:26:38;100017.84;;;8.03;87.04
60852;BME280;48553;50.766;2.900;2022-11-20T17:29:39;100003.28;;;7.99;86.73
60852;BME280;48553;50.766;2.900;2022-11-20T17:32:39;100004.75;;;7.96;86.98
60852;BME280;48553;50.766;2.900;2022-11-20T17:35:44;100015.19;;;7.94;86.80
60852;BME280;48553;50.766;2.900;2022-11-20T17:42:00;100013.63;;;7.93;86.73
60852;BME280;48553;50.766;2.900;2022-11-20T17:45:19;100010.06;;;7.92;86.74
60852;BME280;48553;50.766;2.900;2022-11-20T17:48:19;100008.16;;;7.93;86.74
60852;BME280;48553;50.766;2.900;2022-11-20T17:51:22;100010.06;;;7.92;86.78